Time;durP1;ratioP1;P1;durP2;ratioP2;P2;SDS_P1;SDS_P2;PMS_P1;PMS_P2;Temp;Humidity;BMP_temperature;BMP_pressure;BME280_temperature;BME280_humidity;BME280_pressure;Samples;Min_cycle;Max_cycle;Signal;HPM_P1;HPM_P2
2022/01/09 00:00:36;;;;;;;24.52;11.75;;;;;;;-0.08;55.67;99342.19;4373934;32;34317;-85
2022/01/09 00:03:05;;;;;;;22.85;11.82;;;;;;;0.04;55.30;99336.88;4362837;32;33585;-85
2022/01/09 00:05:33;;;;;;;24.60;12.05;;;;;;;-0.08;55.34;99332.66;4362504;32;33513;-85
2022/01/09 00:08:00;;;;;;;22.73;11.12;;;;;;;-0.08;55.29;99331.81;4350217;32;32166;-85
2022/01/09 00:10:30;;;;;;;26.55;12.80;;;;;;;-0.09;55.30;99340.47;4362502;32;33426;-85
2022/01/09 00:12:58;;;;;;;25.23;10.90;;;;;;;-0.13;55.17;99333.56;4373732;32;34343;-85
2022/01/09 00:15:26;;;;;;;22.83;10.60;;;;;;;-0.27;55.37;99331.94;4374967;32;33360;-85
2022/01/09 00:17:54;;;;;;;26.98;11.63;;;;;;;-0.19;55.29;99324.13;4374939;32;33427;-85
2022/01/09 00:20:22;;;;;;;23.92;11.60;;;;;;;-0.24;55.36;99325.84;4349698;32;32132;-85
2022/01/09 00:22:51;;;;;;;20.58;10.43;;;;;;;-0.52;56.45;99317.44;4380501;32;33461;-85
2022/01/09 00:25:21;;;;;;;23.83;10.65;;;;;;;-0.36;55.75;99307.81;4374968;32;33615;-85
2022/01/09 00:27:50;;;;;;;19.25;10.35;;;;;;;-0.50;56.21;99310.50;4362259;32;33964;-86
2022/01/09 00:30:20;;;;;;;21.65;11.00;;;;;;;-0.82;56.76;99308.97;4374615;32;33725;-86
2022/01/09 00:32:48;;;;;;;22.35;10.30;;;;;;;-0.46;55.72;99301.81;4349450;32;32911;-85
2022/01/09 00:35:16;;;;;;;21.92;9.75;;;;;;;-0.72;56.49;99295.94;4381168;32;33320;-85
2022/01/09 00:37:44;;;;;;;23.12;11.38;;;;;;;-0.48;55.86;99294.91;4374543;32;33736;-85
2022/01/09 00:40:14;;;;;;;25.10;10.25;;;;;;;-0.45;55.54;99297.50;4349420;32;33274;-85
2022/01/09 00:42:42;;;;;;;24.23;10.60;;;;;;;-0.89;56.79;99298.66;4374741;32;33575;-85
2022/01/09 00:45:12;;;;;;;20.90;10.23;;;;;;;-0.73;56.87;99296.81;4362280;32;33361;-87
2022/01/09 00:47:40;;;;;;;24.02;10.57;;;;;;;-0.62;56.31;99295.00;4374304;32;34037;-86
2022/01/09 00:50:08;;;;;;;21.55;9.23;;;;;;;-0.72;56.83;99293.34;4374749;32;33743;-86
2022/01/09 00:53:19;;;;;;;19.20;9.77;;;;;;;-0.58;56.37;99289.78;4355078;32;33068;-86
2022/01/09 00:55:47;;;;;;;25.58;9.98;;;;;;;-1.01;57.63;99284.00;4374973;32;33672;-86
2022/01/09 00:58:15;;;;;;;24.65;10.93;;;;;;;-0.75;57.27;99275.25;4349982;32;32800;-86
2022/01/09 01:00:53;;;;;;;29.77;11.55;;;;;;;-1.01;57.54;99272.78;4350221;32;33395;-86
2022/01/09 01:03:21;;;;;;;21.15;10.95;;;;;;;-0.77;56.93;99273.50;4349553;32;33820;-86
2022/01/09 01:05:49;;;;;;;23.20;10.07;;;;;;;-0.87;57.40;99271.84;4362647;32;34646;-86
2022/01/09 01:08:30;;;;;;;24.35;10.40;;;;;;;-0.64;56.93;99268.25;4374668;32;33959;-86
2022/01/09 01:10:58;;;;;;;;;;;;;;;-1.00;58.09;99264.13;4375164;32;32623;-86
2022/01/09 01:13:26;;;;;;;23.02;9.98;;;;;;;-1.02;58.44;99260.72;4387270;32;34460;-86
2022/01/09 01:15:54;;;;;;;24.98;10.05;;;;;;;-0.85;58.04;99251.12;4349456;32;33005;-86
2022/01/09 01:18:22;;;;;;;24.12;9.55;;;;;;;-0.90;58.08;99252.84;4362214;32;33209;-86
2022/01/09 01:20:50;;;;;;;22.30;10.18;;;;;;;-1.02;58.50;99243.44;4367863;32;33434;-86
2022/01/09 01:23:17;;;;;;;20.33;10.38;;;;;;;-0.79;58.15;99244.16;4372838;32;32840;-86
2022/01/09 01:25:50;;;;;;;20.60;9.70;;;;;;;-0.77;58.03;99234.62;4362253;32;34804;-85
2022/01/09 01:28:19;;;;;;;23.77;10.20;;;;;;;-0.82;58.32;99230.34;4361409;32;34304;-86
2022/01/09 01:30:47;;;;;;;21.73;10.45;;;;;;;-0.63;57.82;99218.09;4380195;32;33423;-86
2022/01/09 01:33:15;;;;;;;23.45;10.20;;;;;;;-0.93;59.09;99221.78;4373995;32;33466;-87
2022/01/09 01:35:42;;;;;;;31.58;10.90;;;;;;;-0.54;58.04;99210.25;4374170;32;34650;-86
2022/01/09 01:38:13;;;;;;;26.60;11.65;;;;;;;-0.47;57.67;99206.75;4373271;32;33101;-85
2022/01/09 01:40:40;;;;;;;28.12;12.20;;;;;;;-0.48;57.34;99212.78;4374167;32;33555;-86
2022/01/09 01:43:08;;;;;;;31.17;13.30;;;;;;;-0.47;57.17;99208.47;4374389;32;33469;-84
2022/01/09 01:45:36;;;;;;;32.65;14.00;;;;;;;-0.56;57.29;99199.03;4374372;32;34520;-84
2022/01/09 01:48:07;;;;;;;29.25;13.40;;;;;;;-0.48;56.91;99202.41;4374279;32;34484;-84
2022/01/09 01:50:38;;;;;;;33.25;15.07;;;;;;;-0.44;56.63;99200.66;4372787;32;33289;-84
2022/01/09 01:53:13;;;;;;;27.90;13.25;;;;;;;-0.61;56.97;99198.22;4374124;32;32621;-84
2022/01/09 01:55:44;;;;;;;25.00;11.65;;;;;;;-0.64;57.06;99195.66;4373992;32;34369;-84
2022/01/09 01:58:13;;;;;;;25.65;12.60;;;;;;;-0.62;56.92;99194.78;4374283;32;33040;-84
2022/01/09 02:00:42;;;;;;;30.17;12.27;;;;;;;-0.59;56.66;99186.09;4378342;32;32313;-84
2022/01/09 02:03:10;;;;;;;27.80;13.27;;;;;;;-0.45;56.24;99189.44;4374012;32;33605;-84
2022/01/09 02:05:43;;;;;;;26.87;12.18;;;;;;;-0.53;56.23;99186.03;4361360;32;33880;-84
2022/01/09 02:08:12;;;;;;;22.75;10.90;;;;;;;-0.91;57.26;99187.19;4365871;32;33340;-83
2022/01/09 02:10:44;;;;;;;20.20;10.63;;;;;;;-1.14;58.55;99186.50;4361524;32;34002;-83
2022/01/09 02:13:12;;;;;;;25.42;10.57;;;;;;;-1.01;58.22;99185.53;4361678;32;33792;-84
2022/01/09 02:15:43;;;;;;;28.42;10.27;;;;;;;-0.80;57.47;99174.19;4361412;32;34371;-83
2022/01/09 02:18:17;;;;;;;23.17;10.98;;;;;;;-0.66;56.81;99172.34;4366337;32;32929;-83
2022/01/09 02:21:04;;;;;;;24.67;11.57;;;;;;;-0.85;57.28;99174.22;4373812;32;34665;-84
2022/01/09 02:23:34;;;;;;;24.25;11.75;;;;;;;-0.90;56.98;99163.03;4361195;32;34581;-84
2022/01/09 02:26:02;;;;;;;32.90;12.23;;;;;;;-0.90;56.62;99154.37;4373636;32;34357;-84
2022/01/09 02:28:30;;;;;;;27.27;11.00;;;;;;;-0.81;56.32;99159.47;4348379;32;32666;-84
2022/01/09 02:30:57;;;;;;;29.67;12.52;;;;;;;-0.85;56.25;99163.84;4366643;32;33787;-85
2022/01/09 02:33:25;;;;;;;23.87;12.25;;;;;;;-1.40;57.82;99165.94;4360861;32;32748;-85
2022/01/09 02:35:54;;;;;;;26.30;11.98;;;;;;;-1.53;58.48;99162.56;4381431;32;33961;-85
2022/01/09 02:38:21;;;;;;;24.80;12.23;;;;;;;-1.63;58.99;99163.47;4375295;32;33180;-84
2022/01/09 02:40:52;;;;;;;24.70;11.98;;;;;;;-1.42;58.12;99165.09;4375150;32;33367;-83
2022/01/09 02:43:21;;;;;;;24.95;11.68;;;;;;;-1.25;57.25;99158.06;4382126;32;32742;-84
2022/01/09 02:45:58;;;;;;;32.00;13.10;;;;;;;-1.31;57.23;99151.22;4374545;32;34931;-84
2022/01/09 02:48:30;;;;;;;21.90;12.40;;;;;;;-1.15;56.55;99148.50;4363827;32;34969;-85
2022/01/09 02:51:06;;;;;;;25.45;11.95;;;;;;;-1.48;56.87;99145.25;4363805;32;34339;-85
2022/01/09 02:55:04;;;;;;;30.88;11.90;;;;;;;-1.25;56.28;99149.44;4363646;32;34211;-84
2022/01/09 02:56:47;;;;;;;;;;;;;;;-1.37;56.55;99146.09;4376260;32;33428;-85
2022/01/09 02:59:14;;;;;;;23.52;10.55;;;;;;;-1.41;56.63;99148.69;4375644;32;34957;-85
2022/01/09 03:01:42;;;;;;;24.05;11.15;;;;;;;-1.63;57.68;99147.94;4351354;32;32372;-84
2022/01/09 03:04:10;;;;;;;22.55;10.60;;;;;;;-1.61;57.65;99141.91;4376181;32;33658;-85
2022/01/09 03:06:38;;;;;;;29.00;12.43;;;;;;;-1.53;57.44;99141.84;4363720;32;33897;-84
2022/01/09 03:09:07;;;;;;;25.40;12.30;;;;;;;-1.46;56.87;99140.94;4363525;32;33739;-83
2022/01/09 03:11:38;;;;;;;32.00;14.15;;;;;;;-1.60;56.85;99132.41;4375700;32;33311;-83
2022/01/09 03:14:07;;;;;;;27.50;12.88;;;;;;;-1.38;56.26;99123.63;4375082;32;32927;-83
2022/01/09 03:16:35;;;;;;;21.40;11.63;;;;;;;-1.81;57.56;99129.03;4362849;32;33039;-83
2022/01/09 03:19:02;;;;;;;25.25;11.82;;;;;;;-1.79;57.33;99131.63;4375317;32;34720;-83
2022/01/09 03:21:30;;;;;;;23.05;12.00;;;;;;;-1.52;56.47;99124.56;4379818;32;34155;-84
2022/01/09 03:23:58;;;;;;;28.05;11.82;;;;;;;-1.32;55.84;99125.34;4375396;32;33825;-84
2022/01/09 03:26:26;;;;;;;26.02;11.35;;;;;;;-1.48;55.79;99115.94;4378178;32;32682;-84
2022/01/09 03:28:53;;;;;;;22.50;10.38;;;;;;;-1.90;57.35;99121.34;4368818;32;32719;-84
2022/01/09 03:31:21;;;;;;;25.85;12.52;;;;;;;-1.76;57.05;99117.81;4377920;32;33062;-83
2022/01/09 03:33:53;;;;;;;25.20;10.75;;;;;;;-1.93;57.10;99118.75;4362986;32;33863;-85
2022/01/09 03:36:21;;;;;;;24.95;11.52;;;;;;;-1.96;57.17;99118.75;4375303;32;33950;-85
2022/01/09 03:38:49;;;;;;;24.08;11.38;;;;;;;-1.94;56.93;99116.19;4375266;32;33713;-86
2022/01/09 03:41:17;;;;;;;25.15;12.80;;;;;;;-2.10;57.50;99120.53;4375385;32;34079;-85
2022/01/09 03:43:45;;;;;;;25.23;12.40;;;;;;;-2.27;58.41;99124.94;4367779;32;32986;-85
2022/01/09 03:46:12;;;;;;;22.80;10.30;;;;;;;-2.28;58.41;99123.19;4368635;32;33620;-85
2022/01/09 03:48:40;;;;;;;21.95;10.73;;;;;;;-2.16;57.96;99125.75;4363113;32;33758;-85
2022/01/09 03:51:10;;;;;;;22.95;10.93;;;;;;;-1.99;56.99;99126.56;4362412;32;33649;-85
2022/01/09 03:53:39;;;;;;;25.05;11.65;;;;;;;-2.10;57.18;99124.00;4370303;32;34127;-84
2022/01/09 03:56:07;;;;;;;20.15;10.38;;;;;;;-2.47;58.33;99119.78;4375144;32;34378;-84
2022/01/09 03:58:36;;;;;;;22.52;10.23;;;;;;;-2.24;57.74;99122.31;4375330;32;33890;-84
2022/01/09 04:01:06;;;;;;;23.60;12.65;;;;;;;-2.12;57.03;99114.53;4375403;32;33258;-84
2022/01/09 04:03:35;;;;;;;21.90;11.25;;;;;;;-2.47;57.55;99114.63;4380452;32;33772;-84
2022/01/09 04:06:10;;;;;;;21.02;10.68;;;;;;;-2.54;58.58;99103.44;4351046;32;34323;-85
2022/01/09 04:08:39;;;;;;;25.77;11.07;;;;;;;-2.48;58.78;99102.56;4375372;32;34106;-85
2022/01/09 04:11:07;;;;;;;27.52;11.70;;;;;;;-2.37;57.96;99098.25;4362821;32;33273;-84
2022/01/09 04:13:36;;;;;;;26.25;12.60;;;;;;;-2.43;57.63;99096.50;4374917;32;34204;-84
2022/01/09 04:16:04;;;;;;;31.67;12.50;;;;;;;-2.29;57.08;99082.69;4379850;32;32696;-84
2022/01/09 04:18:32;;;;;;;26.80;13.50;;;;;;;-2.33;57.08;99087.88;4361540;32;32832;-83
2022/01/09 04:21:00;;;;;;;28.15;11.85;;;;;;;-2.45;57.58;99082.75;4375255;32;33430;-84
2022/01/09 04:23:28;;;;;;;31.62;13.40;;;;;;;-2.40;57.60;99080.16;4375189;32;33864;-84
2022/01/09 04:25:56;;;;;;;26.40;13.68;;;;;;;-2.33;57.90;99081.84;4374953;32;33435;-84
2022/01/09 04:28:24;;;;;;;34.53;14.38;;;;;;;-2.55;58.81;99078.47;4350386;32;33308;-84
2022/01/09 04:30:51;;;;;;;27.45;13.38;;;;;;;-2.55;58.49;99080.19;4362345;32;33021;-84
2022/01/09 04:33:19;;;;;;;34.05;13.85;;;;;;;-2.67;58.95;99078.47;4380974;32;33308;-84
2022/01/09 04:35:52;;;;;;;33.38;13.70;;;;;;;-2.50;58.10;99084.47;4368415;32;33848;-83
2022/01/09 04:38:19;;;;;;;29.23;14.07;;;;;;;-2.45;57.93;99084.47;4374724;32;33487;-83
2022/01/09 04:40:47;;;;;;;33.25;14.63;;;;;;;-2.29;57.10;99074.94;4362204;32;33408;-83
2022/01/09 04:43:16;;;;;;;34.08;14.52;;;;;;;-2.54;58.16;99077.59;4362226;32;32396;-83
2022/01/09 04:45:45;;;;;;;39.58;15.10;;;;;;;-2.68;58.17;99075.03;4372358;32;89272;-84
2022/01/09 04:48:14;;;;;;;25.48;13.45;;;;;;;-2.27;56.99;99068.03;4362608;32;33965;-84
2022/01/09 04:50:44;;;;;;;26.58;13.15;;;;;;;-2.39;56.81;99067.19;4374974;32;33254;-84
2022/01/09 04:53:12;;;;;;;30.95;13.88;;;;;;;-2.43;56.86;99065.50;4374470;32;33910;-84
2022/01/09 04:55:42;;;;;;;36.22;14.07;;;;;;;-2.37;56.71;99070.66;4375132;32;33259;-84
2022/01/09 04:58:13;;;;;;;28.73;14.25;;;;;;;-2.47;57.11;99068.09;4362030;32;32861;-84
2022/01/09 05:00:40;;;;;;;31.60;15.27;;;;;;;-2.54;57.91;99067.25;4362370;32;33662;-84
2022/01/09 05:03:10;;;;;;;33.90;13.68;;;;;;;-2.48;57.85;99072.41;4374444;32;33365;-84
2022/01/09 05:05:39;;;;;;;29.70;14.00;;;;;;;-2.91;58.57;99067.31;4372831;32;33953;-83
2022/01/09 05:08:07;;;;;;;36.22;14.55;;;;;;;-2.45;57.43;99069.81;4373028;32;33722;-84
2022/01/09 05:10:35;;;;;;;34.30;13.50;;;;;;;-2.42;56.95;99069.81;4379967;32;34614;-83
2022/01/09 05:13:02;;;;;;;32.50;15.18;;;;;;;-2.81;58.35;99077.66;4371566;32;32576;-83
2022/01/09 05:15:30;;;;;;;36.28;14.98;;;;;;;-2.83;58.73;99075.94;4372710;32;34576;-83
2022/01/09 05:18:00;;;;;;;31.55;14.05;;;;;;;-2.56;57.60;99074.16;4371983;32;33438;-84
2022/01/09 05:20:29;;;;;;;28.33;14.35;;;;;;;-2.65;57.66;99081.94;4375291;32;32603;-84
2022/01/09 05:22:56;;;;;;;31.48;14.07;;;;;;;-2.71;58.30;99077.63;4359834;32;33411;-84
2022/01/09 05:25:24;;;;;;;33.85;15.27;;;;;;;-2.76;58.41;99081.94;4371928;32;32156;-84
2022/01/09 05:27:52;;;;;;;35.30;13.98;;;;;;;-2.71;58.21;99069.00;4374850;32;31830;-84
2022/01/09 05:30:19;;;;;;;44.58;14.27;;;;;;;-2.80;58.12;99071.63;4371422;32;32361;-84
2022/01/09 05:32:47;;;;;;;35.53;13.50;;;;;;;-2.69;57.41;99080.22;4371968;32;33123;-84
2022/01/09 05:35:15;;;;;;;32.50;14.13;;;;;;;-3.17;58.68;99079.41;4371444;32;33825;-84
2022/01/09 05:37:43;;;;;;;30.62;13.00;;;;;;;-2.97;58.26;99067.34;4333186;32;33234;-84
2022/01/09 05:40:10;;;;;;;25.45;13.13;;;;;;;-2.93;57.81;99069.06;4371176;32;33414;-84
2022/01/09 05:42:38;;;;;;;29.55;13.57;;;;;;;-3.14;58.00;99069.06;4359465;32;34526;-84
2022/01/09 05:45:08;;;;;;;24.75;12.82;;;;;;;-3.20;58.05;99071.66;4353360;32;33254;-83
2022/01/09 05:47:35;;;;;;;30.45;14.70;;;;;;;-3.29;58.29;99074.25;4371804;32;33182;-84
2022/01/09 05:50:05;;;;;;;24.63;13.23;;;;;;;-3.07;57.61;99075.97;4370791;32;34430;-84
2022/01/09 05:52:32;;;;;;;27.23;13.10;;;;;;;-2.83;56.89;99065.59;4347736;32;33646;-85
2022/01/09 05:55:00;;;;;;;23.98;12.20;;;;;;;-2.78;57.17;99067.31;4360406;32;33280;-85
2022/01/09 05:57:27;;;;;;;31.90;11.95;;;;;;;-3.02;58.05;99057.88;4361256;32;32302;-85
2022/01/09 05:59:55;;;;;;;28.33;12.23;;;;;;;-2.99;57.70;99051.00;4348664;32;33226;-85
2022/01/09 06:02:22;;;;;;;30.08;12.15;;;;;;;-2.90;57.18;99050.97;4361220;32;33728;-85
2022/01/09 06:04:51;;;;;;;30.67;12.80;;;;;;;-2.86;56.68;99052.69;4373025;32;34333;-85
2022/01/09 06:07:18;;;;;;;26.70;11.90;;;;;;;-2.97;57.17;99057.00;4373266;32;33420;-85
2022/01/09 06:09:46;;;;;;;37.67;14.57;;;;;;;-3.34;58.84;99066.50;4373905;32;32628;-85
2022/01/09 06:12:14;;;;;;;30.10;14.38;;;;;;;-3.41;59.53;99064.78;4375435;32;33882;-85
2022/01/09 06:14:42;;;;;;;31.85;13.15;;;;;;;-3.27;58.94;99062.22;4372397;32;34523;-85
2022/01/09 06:17:10;;;;;;;23.52;11.85;;;;;;;-2.93;57.41;99058.75;4363257;32;33907;-85
2022/01/09 06:19:38;;;;;;;30.20;13.60;;;;;;;-2.99;56.95;99052.69;4375520;32;33819;-85
2022/01/09 06:22:06;;;;;;;25.85;12.73;;;;;;;-2.81;56.31;99056.97;4363532;32;32907;-85
2022/01/09 06:24:33;;;;;;;31.30;14.98;;;;;;;-2.74;56.11;99045.78;4359363;32;32758;-85
2022/01/09 06:27:01;;;;;;;26.90;12.82;;;;;;;-2.95;56.81;99052.69;4366616;32;32958;-85
2022/01/09 06:29:29;;;;;;;42.78;20.08;;;;;;;-3.00;56.96;99051.84;4377970;32;33346;-84
2022/01/09 06:31:57;;;;;;;47.38;20.12;;;;;;;-3.67;59.76;99064.75;4374682;32;33743;-84
2022/01/09 06:34:25;;;;;;;45.30;18.30;;;;;;;-3.64;59.82;99063.03;4374390;32;33315;-85
2022/01/09 06:36:53;;;;;;;43.28;18.40;;;;;;;-3.49;59.65;99063.91;4361497;32;33520;-86
2022/01/09 06:39:20;;;;;;;39.47;17.12;;;;;;;-3.30;58.65;99064.78;4350094;32;33813;-85
2022/01/09 06:41:48;;;;;;;29.17;13.93;;;;;;;-3.22;57.73;99056.19;4375561;32;33834;-86
2022/01/09 06:44:16;;;;;;;31.23;14.07;;;;;;;-3.14;57.02;99066.50;4373194;32;34004;-86
2022/01/09 06:46:44;;;;;;;25.98;13.57;;;;;;;-3.36;57.78;99070.81;4361948;32;33830;-84
2022/01/09 06:49:12;;;;;;;36.33;14.20;;;;;;;-3.31;57.61;99076.84;4360168;32;33521;-84
2022/01/09 06:51:39;;;;;;;37.00;13.43;;;;;;;-3.37;57.77;99061.31;4381261;32;32868;-83
2022/01/09 06:54:07;;;;;;;40.72;13.27;;;;;;;-3.21;56.49;99051.88;4381729;32;33818;-84
2022/01/09 06:56:35;;;;;;;39.40;14.38;;;;;;;-3.11;56.15;99059.59;4374735;32;33907;-84
2022/01/09 06:59:02;;;;;;;37.88;14.82;;;;;;;-3.08;56.09;99050.16;4374154;32;33339;-83
2022/01/09 07:01:30;;;;;;;41.05;21.33;;;;;;;-3.06;55.97;99041.53;4374418;32;34684;-84
2022/01/09 07:03:58;;;;;;;47.20;22.87;;;;;;;-2.91;55.81;99050.97;4379325;32;33017;-83
2022/01/09 07:06:26;;;;;;;54.90;24.12;;;;;;;-3.18;57.13;99062.19;4371732;32;33494;-84
2022/01/09 07:08:53;;;;;;;46.95;20.52;;;;;;;-3.26;58.15;99074.25;4363720;32;32324;-83
2022/01/09 07:11:21;;;;;;;41.72;19.35;;;;;;;-3.12;57.97;99067.38;4363445;32;33428;-84
2022/01/09 07:13:49;;;;;;;42.03;19.62;;;;;;;-3.08;57.99;99063.94;4374178;32;32722;-84
2022/01/09 07:16:17;;;;;;;41.58;18.27;;;;;;;-3.19;58.18;99073.38;4375946;32;32504;-85
2022/01/09 07:18:45;;;;;;;36.90;17.67;;;;;;;-3.21;58.58;99062.19;4361163;32;33416;-83
2022/01/09 07:21:12;;;;;;;40.78;18.42;;;;;;;-2.97;57.78;99064.75;4375696;32;34161;-84
2022/01/09 07:23:40;;;;;;;42.28;19.35;;;;;;;-3.13;58.73;99069.09;4359557;32;33934;-84
2022/01/09 07:26:08;;;;;;;43.13;18.30;;;;;;;-3.37;60.19;99069.97;4373644;32;34671;-84
2022/01/09 07:28:36;;;;;;;47.72;20.37;;;;;;;-2.93;59.17;99063.91;4361325;32;32259;-84
2022/01/09 07:31:03;;;;;;;41.22;18.67;;;;;;;-2.99;58.94;99069.09;4374505;32;33356;-84
2022/01/09 07:33:33;;;;;;;54.45;20.85;;;;;;;-2.85;58.53;99067.34;4368631;32;33491;-84
2022/01/09 07:36:01;;;;;;;37.58;18.77;;;;;;;-2.77;58.68;99058.69;4361144;32;32742;-84
2022/01/09 07:38:29;;;;;;;41.92;19.70;;;;;;;-2.63;58.48;99054.34;4374879;32;33152;-84
2022/01/09 07:40:57;;;;;;;40.65;19.02;;;;;;;-2.68;58.98;99048.34;4376484;32;32801;-84
2022/01/09 07:43:25;;;;;;;39.60;18.95;;;;;;;-2.60;59.26;99049.19;4361887;32;32942;-84
2022/01/09 07:45:52;;;;;;;41.47;19.62;;;;;;;-2.39;58.92;99041.34;4377253;32;34510;-84
2022/01/09 07:48:23;;;;;;;41.20;19.35;;;;;;;-2.17;58.68;99043.84;4362437;32;32572;-84
2022/01/09 07:50:51;;;;;;;49.88;22.95;;;;;;;-2.25;59.49;99046.47;4374082;32;33503;-84
2022/01/09 07:53:23;;;;;;;47.17;21.37;;;;;;;-2.25;60.15;99045.63;4362636;32;33114;-84
2022/01/09 07:55:52;;;;;;;48.97;21.50;;;;;;;-2.19;60.56;99043.84;4367527;32;33115;-84
2022/01/09 07:58:20;;;;;;;48.13;21.17;;;;;;;-1.85;60.08;99044.56;4365838;32;34316;-84
2022/01/09 08:00:48;;;;;;;34.50;18.37;;;;;;;-1.33;59.37;99043.31;4361663;32;33933;-84
2022/01/09 08:03:15;;;;;;;29.80;14.77;;;;;;;-1.33;60.17;99048.47;4341850;32;32935;-84
2022/01/09 08:05:43;;;;;;;31.33;15.57;;;;;;;-1.22;59.97;99045.84;4366473;32;32419;-84
2022/01/09 08:08:11;;;;;;;29.70;15.20;;;;;;;-1.65;61.49;99047.00;4374750;32;32961;-84
2022/01/09 08:10:39;;;;;;;29.15;13.30;;;;;;;-1.48;61.59;99049.47;4362204;32;34326;-84
2022/01/09 08:13:06;;;;;;;33.45;14.25;;;;;;;-1.07;60.43;99024.97;4374409;32;33665;-84
2022/01/09 08:15:34;;;;;;;40.63;15.07;;;;;;;-1.32;61.08;99040.72;4349933;32;33460;-84
2022/01/09 08:18:02;;;;;;;33.67;15.82;;;;;;;-1.40;62.35;99032.16;4365088;32;32673;-84
2022/01/09 08:20:31;;;;;;;37.22;15.57;;;;;;;-1.25;62.13;99033.75;4350243;32;33745;-84
2022/01/09 08:22:59;;;;;;;26.50;15.32;;;;;;;-1.06;61.66;99026.69;4375100;32;33909;-84
2022/01/09 08:25:27;;;;;;;30.33;14.57;;;;;;;-1.40;62.77;99032.16;4363199;32;32847;-84
2022/01/09 08:27:55;;;;;;;39.40;18.25;;;;;;;-1.02;62.04;99020.59;4362833;32;32905;-84
2022/01/09 08:30:23;;;;;;;38.00;16.75;;;;;;;-1.04;62.10;99019.75;4363935;32;33511;-84
2022/01/09 08:32:54;;;;;;;33.97;15.80;;;;;;;-1.03;62.29;99021.47;4362274;32;34651;-84
2022/01/09 08:35:22;;;;;;;34.17;16.83;;;;;;;-0.95;61.91;99024.84;4374612;32;34204;-86
2022/01/09 08:37:51;;;;;;;40.22;16.08;;;;;;;-0.89;62.14;99029.97;4375142;32;33111;-84
2022/01/09 08:40:22;;;;;;;36.70;16.70;;;;;;;-0.97;62.85;99036.94;4349317;32;32680;-87
2022/01/09 08:42:51;;;;;;;37.22;15.27;;;;;;;-0.86;62.89;99040.28;4370716;32;33236;-87
2022/01/09 08:45:19;;;;;;;34.15;15.85;;;;;;;-0.52;62.06;99037.38;4366298;32;33990;-88
2022/01/09 08:47:47;;;;;;;39.75;17.52;;;;;;;-0.61;62.64;99045.25;4377481;32;32809;-88
2022/01/09 08:50:18;;;;;;;38.40;16.90;;;;;;;-0.05;60.81;99039.38;4346129;32;33826;-87
2022/01/09 08:52:46;;;;;;;40.67;18.15;;;;;;;-0.41;62.17;99032.91;4366669;32;33288;-87
2022/01/09 08:55:14;;;;;;;34.35;17.00;;;;;;;-0.18;62.19;99029.19;4372204;32;34245;-87
2022/01/09 08:57:42;;;;;;;34.00;16.40;;;;;;;-0.07;61.82;99027.28;4349333;32;32330;-88
2022/01/09 09:00:10;;;;;;;33.58;15.05;;;;;;;-0.31;62.25;99037.09;4379784;32;32830;-88
2022/01/09 09:02:39;;;;;;;35.92;17.12;;;;;;;-0.05;61.80;99033.31;4340862;32;32737;-87
2022/01/09 09:05:07;;;;;;;39.05;18.27;;;;;;;0.31;60.96;99029.34;4364808;32;34550;-87
2022/01/09 09:07:35;;;;;;;44.33;19.12;;;;;;;0.27;60.97;99024.22;4361367;32;31730;-87
2022/01/09 09:10:04;;;;;;;35.85;18.08;;;;;;;0.42;60.11;99021.41;4360744;32;33831;-88
2022/01/09 09:12:33;;;;;;;38.70;19.92;;;;;;;0.12;61.41;99023.56;4373345;32;33475;-87
2022/01/09 09:15:03;;;;;;;40.40;19.30;;;;;;;-0.26;62.49;99032.72;4351653;32;33105;-87
2022/01/09 09:17:32;;;;;;;33.13;15.75;;;;;;;0.02;62.10;99032.37;4358778;32;33070;-88
2022/01/09 09:20:00;;;;;;;40.45;18.98;;;;;;;0.24;61.77;99035.53;4348650;32;32794;-87
2022/01/09 09:22:28;;;;;;;30.98;17.10;;;;;;;0.46;60.60;99041.25;4348308;32;35644;-87
2022/01/09 09:24:56;;;;;;;35.45;17.73;;;;;;;0.37;61.75;99046.56;4353717;32;34125;-87
2022/01/09 09:27:30;;;;;;;40.10;16.62;;;;;;;0.66;61.44;99052.19;4377586;32;32103;-88
2022/01/09 09:30:00;;;;;;;34.78;16.37;;;;;;;0.93;59.95;99040.47;4372226;32;33341;-88
2022/01/09 09:32:27;;;;;;;32.80;16.83;;;;;;;0.43;61.28;99049.09;4359908;32;35837;-88
2022/01/09 09:34:55;;;;;;;40.53;18.65;;;;;;;0.81;60.32;99042.41;4348040;32;32464;-88
2022/01/09 09:37:26;;;;;;;34.42;16.85;;;;;;;1.01;60.19;99042.97;4362989;32;32602;-88
2022/01/09 09:39:53;;;;;;;34.38;15.48;;;;;;;1.05;60.99;99043.78;4347046;32;32178;-88
2022/01/09 09:42:21;;;;;;;33.53;16.75;;;;;;;0.91;61.05;99041.41;4372883;32;33990;-89
2022/01/09 09:44:49;;;;;;;33.58;17.15;;;;;;;1.34;59.63;99041.50;4380189;32;33714;-88
2022/01/09 09:47:18;;;;;;;41.53;18.60;;;;;;;0.69;61.87;99031.34;4367017;32;32423;-89
2022/01/09 09:49:47;;;;;;;38.97;18.65;;;;;;;0.89;61.16;99048.34;4362439;32;34208;-89
2022/01/09 09:52:18;;;;;;;34.47;17.42;;;;;;;1.32;59.38;99047.59;4365836;32;33638;-88
2022/01/09 09:54:48;;;;;;;42.70;18.45;;;;;;;1.59;58.18;99041.88;4362153;32;34019;-88
2022/01/09 09:57:16;;;;;;;48.03;19.83;;;;;;;1.53;58.32;99045.47;4354455;32;32108;-88
2022/01/09 09:59:47;;;;;;;33.53;16.17;;;;;;;1.73;58.10;99042.47;4355969;32;33293;-88
2022/01/09 10:02:17;;;;;;;32.85;18.15;;;;;;;1.89;57.32;99044.75;4374574;32;34108;-88
2022/01/09 10:05:05;;;;;;;38.50;18.12;;;;;;;1.85;57.59;99053.50;4362307;32;34633;-88
2022/01/09 10:07:33;;;;;;;30.48;16.17;;;;;;;1.83;57.79;99050.09;4340920;32;32261;-88
2022/01/09 10:10:08;;;;;;;36.40;18.05;;;;;;;1.61;58.63;99050.50;4361695;32;32724;-89
2022/01/09 10:12:36;;;;;;;35.13;17.58;;;;;;;1.98;57.34;99050.63;4374652;32;33214;-88
2022/01/09 10:15:08;;;;;;;34.58;18.52;;;;;;;1.88;57.77;99053.47;4374335;32;32278;-88
2022/01/09 10:17:41;;;;;;;33.60;16.77;;;;;;;2.07;57.22;99052.19;4364835;32;32661;-88
2022/01/09 10:20:20;;;;;;;36.03;16.70;;;;;;;2.49;55.74;99052.12;4348519;32;33199;-89
2022/01/09 10:22:55;;;;;;;30.75;16.92;;;;;;;2.46;56.14;99052.19;4366215;32;33042;-89
2022/01/09 10:25:33;;;;;;;36.72;17.25;;;;;;;2.61;55.72;99050.97;4363669;32;33346;-89
2022/01/09 10:28:14;;;;;;;27.45;15.90;;;;;;;2.74;55.05;99042.84;4348046;32;32908;-89
2022/01/09 10:30:47;;;;;;;39.38;16.90;;;;;;;2.29;55.95;99039.56;4347082;32;32355;-89
2022/01/09 10:33:17;;;;;;;37.10;16.98;;;;;;;2.21;56.32;99038.88;4349696;32;33299;-88
2022/01/09 10:35:47;;;;;;;40.65;19.80;;;;;;;1.94;57.52;99042.91;4365098;32;33488;-89
2022/01/09 10:38:22;;;;;;;36.25;19.83;;;;;;;2.39;56.32;99032.41;4360779;32;32428;-88
2022/01/09 10:40:57;;;;;;;36.95;17.73;;;;;;;2.28;56.58;99028.28;4373457;32;32218;-89
2022/01/09 10:43:31;;;;;;;45.53;19.30;;;;;;;2.45;56.10;99020.06;4360225;32;33460;-88
2022/01/09 10:46:00;;;;;;;37.38;18.20;;;;;;;2.44;55.95;99017.50;4360888;32;32512;-89
2022/01/09 10:48:39;;;;;;;36.88;17.80;;;;;;;2.13;58.03;99012.97;4361194;32;31971;-89
2022/01/09 10:51:10;;;;;;;34.00;16.60;;;;;;;3.01;55.51;98994.34;4351527;32;32598;-89
2022/01/09 10:53:43;;;;;;;30.67;16.23;;;;;;;2.87;54.93;98995.63;4333250;32;32814;-89
2022/01/09 10:56:19;;;;;;;55.20;33.35;;;;;;;3.07;54.73;98996.81;4354151;32;32673;-88
2022/01/09 10:58:52;;;;;;;37.83;17.37;;;;;;;2.94;55.11;99002.37;4332108;32;33545;-88
2022/01/09 11:01:24;;;;;;;33.40;16.52;;;;;;;3.30;54.76;98990.97;4336524;32;33670;-88
2022/01/09 11:08:15;;;;;;;33.28;15.48;;;;;;;3.42;53.35;98988.91;4271764;33;33686;-87
2022/01/09 11:10:42;;;;;;;29.83;16.67;;;;;;;3.60;52.41;98978.81;4284724;33;32261;-88
2022/01/09 11:13:26;;;;;;;38.30;15.98;;;;;;;3.22;53.90;98974.66;4280410;33;33807;-88
2022/01/09 11:19:11;;;;;;;35.85;14.98;;;;;;;2.67;55.09;98977.88;4293885;33;34185;-88
2022/01/09 11:22:01;;;;;;;28.65;14.15;;;;;;;3.38;53.49;98976.88;4279825;33;33912;-88
2022/01/09 11:25:08;;;;;;;36.35;16.37;;;;;;;2.86;55.91;98981.72;4277999;33;34275;-88
2022/01/09 11:27:55;;;;;;;36.55;15.63;;;;;;;3.32;53.56;98977.88;4278509;33;34585;-88
2022/01/09 11:30:49;;;;;;;30.48;17.73;;;;;;;3.04;53.42;98978.66;4278998;33;34823;-88
2022/01/09 11:33:41;;;;;;;29.73;15.20;;;;;;;2.95;54.95;98991.06;4267861;33;33435;-87
2022/01/09 11:36:42;;;;;;;29.98;14.95;;;;;;;3.20;53.56;98984.28;4280846;33;34635;-86
2022/01/09 11:39:33;;;;;;;30.42;14.02;;;;;;;3.45;52.77;98979.25;4294300;33;34162;-86